Time;durP1;ratioP1;P1;durP2;ratioP2;P2;SDS_P1;SDS_P2;PMS_P1;PMS_P2;Temp;Humidity;BMP_temperature;BMP_pressure;BME280_temperature;BME280_humidity;BME280_pressure;Samples;Min_cycle;Max_cycle;Signal;HPM_P1;HPM_P2
2021/10/24 00:02:05;;;;;;;110.60;104.20;;;;;;;;;;5011462;28;20493;-66
2021/10/24 00:04:32;;;;;;;104.23;97.87;;;;;;;;;;5013247;28;20835;-65
2021/10/24 00:07:01;;;;;;;103.13;96.93;;;;;;;;;;5012414;28;20449;-66
2021/10/24 00:09:28;;;;;;;103.57;97.33;;;;;;;;;;4994051;28;20549;-65
2021/10/24 00:11:55;;;;;;;107.73;101.27;;;;;;;;;;5008411;28;21291;-66
2021/10/24 00:14:22;;;;;;;113.73;107.23;;;;;;;;;;5012733;28;20481;-66
2021/10/24 00:16:49;;;;;;;105.37;99.37;;;;;;;;;;5000252;28;20466;-66
2021/10/24 00:19:17;;;;;;;102.57;96.27;;;;;;;;;;5010177;28;20469;-66
2021/10/24 00:21:44;;;;;;;103.67;97.50;;;;;;;;;;5011291;28;20560;-66
2021/10/24 00:24:12;;;;;;;106.30;100.00;;;;;;;;;;5011722;28;20476;-65
2021/10/24 00:26:39;;;;;;;107.00;100.80;;;;;;;;;;5012019;28;20577;-68
2021/10/24 00:29:06;;;;;;;105.27;98.63;;;;;;;;;;5013154;28;20446;-65
2021/10/24 00:31:34;;;;;;;105.87;99.37;;;;;;;;;;5011785;28;20507;-66
2021/10/24 00:34:01;;;;;;;104.93;98.67;;;;;;;;;;5007571;28;20472;-65
2021/10/24 00:36:28;;;;;;;111.70;105.40;;;;;;;;;;5010264;28;20465;-66
2021/10/24 00:38:56;;;;;;;103.90;97.70;;;;;;;;;;5012739;28;20479;-67
2021/10/24 00:41:24;;;;;;;102.37;96.37;;;;;;;;;;5012076;28;20493;-65
2021/10/24 00:43:51;;;;;;;102.97;97.17;;;;;;;;;;5012480;28;20816;-65
2021/10/24 00:46:18;;;;;;;101.70;95.83;;;;;;;;;;5010891;28;20465;-66
2021/10/24 00:48:45;;;;;;;103.03;96.80;;;;;;;;;;5011600;28;20557;-66
2021/10/24 00:51:13;;;;;;;100.53;94.70;;;;;;;;;;5009672;28;20879;-66
2021/10/24 00:53:40;;;;;;;103.43;97.57;;;;;;;;;;5012059;28;20470;-67
2021/10/24 00:56:08;;;;;;;102.50;96.30;;;;;;;;;;5010973;28;20489;-66
2021/10/24 00:58:36;;;;;;;113.93;107.50;;;;;;;;;;5012571;28;20473;-66
2021/10/24 01:01:03;;;;;;;102.97;96.30;;;;;;;;;;5012286;28;20470;-65
2021/10/24 01:03:30;;;;;;;105.33;99.00;;;;;;;;;;5012246;28;20465;-67
2021/10/24 01:06:00;;;;;;;102.00;96.00;;;;;;;;;;5011325;28;20477;-66
2021/10/24 01:08:27;;;;;;;104.50;98.03;;;;;;;;;;5014410;28;20453;-65
2021/10/24 01:10:54;;;;;;;104.37;98.43;;;;;;;;;;5010958;28;20493;-66
2021/10/24 01:13:21;;;;;;;102.43;96.83;;;;;;;;;;5013771;28;20469;-65
2021/10/24 01:15:49;;;;;;;101.10;95.20;;;;;;;;;;5010555;28;20488;-67
2021/10/24 01:18:17;;;;;;;102.67;96.57;;;;;;;;;;5011891;28;20962;-66
2021/10/24 01:20:44;;;;;;;100.47;94.67;;;;;;;;;;5010815;28;20465;-66
2021/10/24 01:23:12;;;;;;;104.10;97.70;;;;;;;;;;5010529;28;20466;-66
2021/10/24 01:25:39;;;;;;;100.43;94.23;;;;;;;;;;5010753;28;20476;-66
2021/10/24 01:28:08;;;;;;;106.27;100.17;;;;;;;;;;5011901;28;20445;-67
2021/10/24 01:30:35;;;;;;;102.50;96.57;;;;;;;;;;5010421;28;20465;-66
2021/10/24 01:33:03;;;;;;;107.60;101.43;;;;;;;;;;5011749;28;20532;-67
2021/10/24 01:35:30;;;;;;;106.37;100.30;;;;;;;;;;5001494;28;20489;-65
2021/10/24 01:37:58;;;;;;;108.67;102.43;;;;;;;;;;5012260;28;20449;-66
2021/10/24 01:40:26;;;;;;;97.57;91.73;;;;;;;;;;5010974;28;20461;-66
2021/10/24 01:42:55;;;;;;;102.23;96.40;;;;;;;;;;5011010;28;20496;-66
2021/10/24 01:45:23;;;;;;;104.70;98.53;;;;;;;;;;5009884;28;20462;-66
2021/10/24 01:47:51;;;;;;;102.53;96.73;;;;;;;;;;5011909;28;20475;-66
2021/10/24 01:50:18;;;;;;;106.30;100.00;;;;;;;;;;5010796;28;20466;-68
2021/10/24 01:52:47;;;;;;;106.50;100.10;;;;;;;;;;5010735;28;20477;-67
2021/10/24 01:55:15;;;;;;;108.73;102.17;;;;;;;;;;5009353;28;20488;-66
2021/10/24 01:57:45;;;;;;;103.43;97.23;;;;;;;;;;5011831;28;20465;-66
2021/10/24 02:00:12;;;;;;;102.97;97.17;;;;;;;;;;5010965;28;20473;-66
2021/10/24 02:02:39;;;;;;;105.97;99.70;;;;;;;;;;5011408;28;20543;-66
2021/10/24 02:05:07;;;;;;;106.33;100.40;;;;;;;;;;5013981;28;20469;-66
2021/10/24 02:07:34;;;;;;;104.87;98.77;;;;;;;;;;5014239;28;20469;-65
2021/10/24 02:10:01;;;;;;;104.07;97.83;;;;;;;;;;5014799;28;20472;-66
2021/10/24 02:12:28;;;;;;;104.27;98.23;;;;;;;;;;5012441;28;20481;-65
2021/10/24 02:14:57;;;;;;;102.97;96.87;;;;;;;;;;5013671;28;20489;-66
2021/10/24 02:17:24;;;;;;;106.40;100.20;;;;;;;;;;5014608;28;20472;-66
2021/10/24 02:19:51;;;;;;;104.33;98.07;;;;;;;;;;5014229;28;20472;-67
2021/10/24 02:22:18;;;;;;;99.73;93.97;;;;;;;;;;5007226;28;20504;-67
2021/10/24 02:24:45;;;;;;;100.93;94.70;;;;;;;;;;5013415;28;20469;-67
2021/10/24 02:27:12;;;;;;;107.47;100.97;;;;;;;;;;5013339;28;20472;-66
2021/10/24 02:29:39;;;;;;;109.23;102.77;;;;;;;;;;5010978;28;20564;-66
2021/10/24 02:32:08;;;;;;;106.90;100.90;;;;;;;;;;5012600;28;20508;-66
2021/10/24 02:34:35;;;;;;;109.87;103.07;;;;;;;;;;5012548;28;20468;-66
2021/10/24 02:37:02;;;;;;;111.63;105.03;;;;;;;;;;5014076;28;20508;-67
2021/10/24 02:39:29;;;;;;;111.83;105.53;;;;;;;;;;5013682;28;20508;-66
2021/10/24 02:41:56;;;;;;;116.90;110.10;;;;;;;;;;5014083;28;20850;-66
2021/10/24 02:44:24;;;;;;;109.63;103.30;;;;;;;;;;5014080;28;20461;-66
2021/10/24 02:46:51;;;;;;;113.47;106.80;;;;;;;;;;5012974;28;20819;-66
2021/10/24 02:49:20;;;;;;;108.67;102.37;;;;;;;;;;5013256;28;20472;-65
2021/10/24 02:51:47;;;;;;;108.87;102.70;;;;;;;;;;5012633;28;20485;-66
2021/10/24 02:54:14;;;;;;;121.90;115.40;;;;;;;;;;5013164;28;20469;-67
2021/10/24 02:56:41;;;;;;;108.03;101.60;;;;;;;;;;5011951;28;20489;-66
2021/10/24 02:59:08;;;;;;;118.03;111.60;;;;;;;;;;5013637;28;20834;-66
2021/10/24 03:01:35;;;;;;;110.50;103.90;;;;;;;;;;5013612;28;20560;-66
2021/10/24 03:04:03;;;;;;;107.27;101.00;;;;;;;;;;5013132;28;20996;-65
2021/10/24 03:06:32;;;;;;;113.90;107.40;;;;;;;;;;5012585;28;20465;-66
2021/10/24 03:08:59;;;;;;;111.33;105.03;;;;;;;;;;5013401;28;20477;-67
2021/10/24 03:11:26;;;;;;;103.40;97.60;;;;;;;;;;5008660;28;20496;-66
2021/10/24 03:13:53;;;;;;;108.40;102.20;;;;;;;;;;5012633;28;20474;-68
2021/10/24 03:16:21;;;;;;;110.23;103.70;;;;;;;;;;5012258;28;21587;-66
2021/10/24 03:18:48;;;;;;;104.23;98.07;;;;;;;;;;5012840;28;20474;-66
2021/10/24 03:21:15;;;;;;;103.43;97.53;;;;;;;;;;5012938;28;20492;-66
2021/10/24 03:23:43;;;;;;;115.53;108.50;;;;;;;;;;5012528;28;20956;-66
2021/10/24 03:26:10;;;;;;;107.63;101.43;;;;;;;;;;5011997;28;21071;-65
2021/10/24 03:28:37;;;;;;;101.93;96.03;;;;;;;;;;5006296;28;20469;-67
2021/10/24 03:31:05;;;;;;;108.53;102.00;;;;;;;;;;5012327;28;20489;-66
2021/10/24 03:33:32;;;;;;;110.93;104.83;;;;;;;;;;5010909;28;20468;-66
2021/10/24 03:35:59;;;;;;;108.07;101.50;;;;;;;;;;5012841;28;20485;-65
2021/10/24 03:38:26;;;;;;;110.90;104.77;;;;;;;;;;5012868;28;20462;-65
2021/10/24 03:40:55;;;;;;;114.03;107.63;;;;;;;;;;5012826;28;20486;-65
2021/10/24 03:43:22;;;;;;;108.00;101.50;;;;;;;;;;5011427;28;20484;-66
2021/10/24 03:45:49;;;;;;;112.47;105.97;;;;;;;;;;5012418;28;20824;-65
2021/10/24 03:48:16;;;;;;;114.40;107.87;;;;;;;;;;5012221;28;20465;-67
2021/10/24 03:50:43;;;;;;;119.37;112.50;;;;;;;;;;5005242;28;20461;-66
2021/10/24 03:53:10;;;;;;;107.60;101.50;;;;;;;;;;5012628;28;20469;-66
2021/10/24 03:55:37;;;;;;;119.43;112.80;;;;;;;;;;5011553;28;20489;-66
2021/10/24 03:58:06;;;;;;;108.30;102.00;;;;;;;;;;5012613;28;20481;-66
2021/10/24 04:00:33;;;;;;;116.27;109.77;;;;;;;;;;5012608;28;20478;-66
2021/10/24 04:03:02;;;;;;;109.60;103.30;;;;;;;;;;5012410;28;20461;-66
2021/10/24 04:05:29;;;;;;;117.63;110.90;;;;;;;;;;5010843;28;20500;-66
2021/10/24 04:07:57;;;;;;;109.20;102.77;;;;;;;;;;5009293;28;20457;-67
2021/10/24 04:10:25;;;;;;;105.40;99.23;;;;;;;;;;5012550;28;20457;-67
2021/10/24 04:12:52;;;;;;;105.73;99.63;;;;;;;;;;5012157;28;20492;-67
2021/10/24 04:15:21;;;;;;;106.67;100.70;;;;;;;;;;5012338;28;20488;-66
2021/10/24 04:17:49;;;;;;;110.60;104.30;;;;;;;;;;5010704;28;20473;-66
2021/10/24 04:20:23;;;;;;;106.13;99.53;;;;;;;;;;5012081;28;20465;-66
2021/10/24 04:22:51;;;;;;;102.27;96.27;;;;;;;;;;5011948;28;20481;-65
2021/10/24 04:25:20;;;;;;;103.37;97.37;;;;;;;;;;5012000;28;20461;-65
2021/10/24 04:27:47;;;;;;;107.77;101.57;;;;;;;;;;5010226;28;20504;-66
2021/10/24 04:30:14;;;;;;;102.20;96.20;;;;;;;;;;5012372;28;20485;-66
2021/10/24 04:32:43;;;;;;;102.30;96.50;;;;;;;;;;5010923;28;20493;-67
2021/10/24 04:35:10;;;;;;;105.90;99.90;;;;;;;;;;5011650;28;20473;-66
2021/10/24 04:37:38;;;;;;;109.23;103.13;;;;;;;;;;5011270;28;20487;-67
2021/10/24 04:40:06;;;;;;;119.23;112.53;;;;;;;;;;5005301;28;20461;-65
2021/10/24 04:42:33;;;;;;;109.13;102.90;;;;;;;;;;5008349;28;20497;-67
2021/10/24 04:45:01;;;;;;;112.20;105.70;;;;;;;;;;5004483;28;20461;-65
2021/10/24 04:47:28;;;;;;;107.53;101.43;;;;;;;;;;5012212;28;20458;-65
2021/10/24 04:49:56;;;;;;;105.20;99.27;;;;;;;;;;5012032;28;20465;-65
2021/10/24 04:52:23;;;;;;;104.00;97.90;;;;;;;;;;5011629;28;20481;-66
2021/10/24 04:54:50;;;;;;;112.43;105.90;;;;;;;;;;5009172;28;20465;-66
2021/10/24 04:57:17;;;;;;;104.37;98.10;;;;;;;;;;5011407;28;21074;-66
2021/10/24 04:59:44;;;;;;;104.57;98.30;;;;;;;;;;5011301;28;20473;-65
2021/10/24 05:02:11;;;;;;;113.13;106.73;;;;;;;;;;5010670;28;20481;-67
2021/10/24 05:04:39;;;;;;;109.80;103.53;;;;;;;;;;5011195;28;20476;-69
2021/10/24 05:07:07;;;;;;;110.67;103.97;;;;;;;;;;5010741;28;20956;-66
2021/10/24 05:09:34;;;;;;;114.33;107.60;;;;;;;;;;5010796;28;20469;-66
2021/10/24 05:12:02;;;;;;;112.07;105.50;;;;;;;;;;5011042;28;20508;-66
2021/10/24 05:14:29;;;;;;;105.73;99.30;;;;;;;;;;5011472;28;20956;-66
2021/10/24 05:16:56;;;;;;;103.10;97.00;;;;;;;;;;5011166;28;20652;-65
2021/10/24 05:19:23;;;;;;;105.30;99.10;;;;;;;;;;5010592;28;20983;-67
2021/10/24 05:21:50;;;;;;;101.50;95.53;;;;;;;;;;5010770;28;20512;-66
2021/10/24 05:24:18;;;;;;;101.27;95.27;;;;;;;;;;5011676;28;20476;-66
2021/10/24 05:26:45;;;;;;;104.20;97.70;;;;;;;;;;5009863;28;20458;-68
2021/10/24 05:29:13;;;;;;;101.50;95.20;;;;;;;;;;5010560;28;20477;-66
2021/10/24 05:31:40;;;;;;;107.10;100.43;;;;;;;;;;5010503;28;20890;-66
2021/10/24 05:34:07;;;;;;;104.00;97.63;;;;;;;;;;5011419;28;20476;-67
2021/10/24 05:36:34;;;;;;;107.27;100.83;;;;;;;;;;5006676;28;20486;-65
2021/10/24 05:39:01;;;;;;;105.20;98.90;;;;;;;;;;5038806;22;20502;-68
2021/10/24 05:41:31;;;;;;;100.40;93.97;;;;;;;;;;4999883;28;20471;-68
2021/10/24 05:43:59;;;;;;;105.50;98.90;;;;;;;;;;4995542;28;20466;-69
2021/10/24 05:46:26;;;;;;;107.43;101.20;;;;;;;;;;4991139;28;20470;-67
2021/10/24 05:48:53;;;;;;;101.33;94.63;;;;;;;;;;4990182;28;20494;-68
2021/10/24 05:51:20;;;;;;;103.60;97.20;;;;;;;;;;4990814;28;20467;-67
2021/10/24 05:53:47;;;;;;;112.90;106.23;;;;;;;;;;4990147;28;20976;-68
2021/10/24 05:56:15;;;;;;;104.17;97.77;;;;;;;;;;4990506;28;20494;-67
2021/10/24 05:58:43;;;;;;;104.20;97.67;;;;;;;;;;4990417;28;20497;-68
2021/10/24 06:01:11;;;;;;;105.67;99.20;;;;;;;;;;4990574;28;20467;-68
2021/10/24 06:03:38;;;;;;;105.87;98.97;;;;;;;;;;4990917;28;20473;-68
2021/10/24 06:06:05;;;;;;;102.20;95.80;;;;;;;;;;4990398;28;20466;-67
2021/10/24 06:08:32;;;;;;;102.77;96.20;;;;;;;;;;4991470;28;20489;-68
2021/10/24 06:11:13;;;;;;;107.77;101.27;;;;;;;;;;4991689;28;20474;-68
2021/10/24 06:13:40;;;;;;;101.87;95.47;;;;;;;;;;4988803;28;20470;-67
2021/10/24 06:16:09;;;;;;;103.87;97.40;;;;;;;;;;4990281;28;20474;-66
2021/10/24 06:18:36;;;;;;;109.87;102.90;;;;;;;;;;4990378;28;20494;-68
2021/10/24 06:21:03;;;;;;;113.00;106.13;;;;;;;;;;4992133;28;20818;-67
2021/10/24 06:23:30;;;;;;;108.70;102.00;;;;;;;;;;4986434;28;20454;-68
2021/10/24 06:25:57;;;;;;;105.30;98.80;;;;;;;;;;4990964;28;20802;-67
2021/10/24 06:28:24;;;;;;;108.50;102.20;;;;;;;;;;4991393;28;20478;-70
2021/10/24 06:30:51;;;;;;;100.23;93.93;;;;;;;;;;4992140;28;20451;-73
2021/10/24 06:33:20;;;;;;;114.60;107.70;;;;;;;;;;4991775;28;20961;-67
2021/10/24 06:35:47;;;;;;;117.37;110.50;;;;;;;;;;4991292;28;20824;-67
2021/10/24 06:38:17;;;;;;;129.23;121.40;;;;;;;;;;4990987;28;20478;-68
2021/10/24 06:40:44;;;;;;;126.77;119.37;;;;;;;;;;4991795;28;20446;-68
2021/10/24 06:43:11;;;;;;;130.47;122.67;;;;;;;;;;4991137;28;20984;-67
2021/10/24 06:45:38;;;;;;;141.83;133.20;;;;;;;;;;4990849;28;20454;-67
2021/10/24 06:48:06;;;;;;;165.50;156.30;;;;;;;;;;4991873;28;20458;-67
2021/10/24 06:50:35;;;;;;;167.63;158.07;;;;;;;;;;4995126;28;20449;-69
2021/10/24 06:53:02;;;;;;;188.63;178.23;;;;;;;;;;4995256;28;20466;-68
2021/10/24 06:55:30;;;;;;;190.97;180.10;;;;;;;;;;5002316;28;20446;-67
2021/10/24 06:57:57;;;;;;;186.17;175.80;;;;;;;;;;4995664;28;20536;-68
2021/10/24 07:00:25;;;;;;;190.27;179.93;;;;;;;;;;4995372;28;20481;-67
2021/10/24 07:02:53;;;;;;;179.90;169.30;;;;;;;;;;4995923;28;20454;-70
2021/10/24 07:05:20;;;;;;;216.73;204.80;;;;;;;;;;4994913;28;20463;-68
2021/10/24 07:07:49;;;;;;;285.23;270.70;;;;;;;;;;4995176;28;20452;-67
2021/10/24 07:10:16;;;;;;;332.00;315.07;;;;;;;;;;4995048;28;20549;-68
2021/10/24 07:12:44;;;;;;;390.30;371.03;;;;;;;;;;4995041;28;20446;-68
2021/10/24 07:15:12;;;;;;;446.80;422.97;;;;;;;;;;4994404;28;20455;-68
2021/10/24 07:17:39;;;;;;;230.47;216.83;;;;;;;;;;4994318;28;20485;-69
2021/10/24 07:20:07;;;;;;;202.00;188.87;;;;;;;;;;4993390;28;20901;-68
2021/10/24 07:22:34;;;;;;;274.30;258.70;;;;;;;;;;4993695;28;20451;-68
2021/10/24 07:25:02;;;;;;;418.20;396.93;;;;;;;;;;4992416;28;20467;-68
2021/10/24 07:27:29;;;;;;;519.20;491.87;;;;;;;;;;4998284;28;20446;-68
2021/10/24 07:29:57;;;;;;;557.27;525.57;;;;;;;;;;4994658;28;20471;-67
2021/10/24 07:32:24;;;;;;;492.27;459.53;;;;;;;;;;4993631;28;20462;-67
2021/10/24 07:34:51;;;;;;;442.10;410.47;;;;;;;;;;4994639;28;20984;-68
2021/10/24 07:37:18;;;;;;;447.37;416.17;;;;;;;;;;4994900;28;20489;-68
2021/10/24 07:39:46;;;;;;;438.20;408.43;;;;;;;;;;4994600;28;20489;-68
2021/10/24 07:42:14;;;;;;;449.00;421.50;;;;;;;;;;5011150;28;20512;-71
2021/10/24 07:44:41;;;;;;;430.03;405.10;;;;;;;;;;5004606;28;20454;-69
2021/10/24 07:47:08;;;;;;;402.83;381.23;;;;;;;;;;4993469;28;20450;-71
2021/10/24 07:49:35;;;;;;;431.13;407.37;;;;;;;;;;4993823;28;21245;-71
2021/10/24 07:52:03;;;;;;;412.90;387.00;;;;;;;;;;4993909;28;20449;-72
2021/10/24 07:54:30;;;;;;;397.07;374.60;;;;;;;;;;4993491;28;20557;-71
2021/10/24 07:56:57;;;;;;;393.87;375.07;;;;;;;;;;4994200;28;20486;-71
2021/10/24 07:59:25;;;;;;;384.37;367.07;;;;;;;;;;4998532;28;20512;-69
2021/10/24 08:01:53;;;;;;;373.87;357.37;;;;;;;;;;4993841;28;20451;-72
2021/10/24 08:04:20;;;;;;;307.17;293.77;;;;;;;;;;4994650;28;20462;-71
2021/10/24 08:06:47;;;;;;;256.00;244.80;;;;;;;;;;4989583;28;20455;-70
2021/10/24 08:09:14;;;;;;;202.87;193.60;;;;;;;;;;4989963;28;20474;-72
2021/10/24 08:11:43;;;;;;;164.70;156.90;;;;;;;;;;4994331;28;20458;-72
2021/10/24 08:14:10;;;;;;;136.20;129.30;;;;;;;;;;4994257;28;20443;-72
2021/10/24 08:16:39;;;;;;;120.67;114.27;;;;;;;;;;4993808;28;20451;-71
2021/10/24 08:19:06;;;;;;;108.40;102.70;;;;;;;;;;4994109;28;20476;-71
2021/10/24 08:21:34;;;;;;;90.27;85.27;;;;;;;;;;4993585;28;20465;-71
2021/10/24 08:24:01;;;;;;;87.60;82.43;;;;;;;;;;4994337;28;20446;-72
2021/10/24 08:26:29;;;;;;;79.07;74.63;;;;;;;;;;4993366;28;20457;-72
2021/10/24 08:28:57;;;;;;;76.27;72.07;;;;;;;;;;4993546;28;20482;-72
2021/10/24 08:31:26;;;;;;;63.33;59.63;;;;;;;;;;4993606;28;20457;-72
2021/10/24 08:33:55;;;;;;;62.10;58.50;;;;;;;;;;4992654;28;20461;-72
2021/10/24 08:36:22;;;;;;;150.63;142.87;;;;;;;;;;4993032;28;20946;-69
2021/10/24 08:38:49;;;;;;;136.03;129.27;;;;;;;;;;4993738;28;21021;-66
2021/10/24 08:41:22;;;;;;;127.37;120.73;;;;;;;;;;4993708;28;20809;-65
2021/10/24 08:43:49;;;;;;;94.70;89.40;;;;;;;;;;4994375;28;21040;-66
2021/10/24 08:46:17;;;;;;;85.63;80.47;;;;;;;;;;4993845;28;20466;-65
2021/10/24 08:48:44;;;;;;;73.33;68.90;;;;;;;;;;4993712;28;20470;-67
2021/10/24 08:51:13;;;;;;;68.90;64.80;;;;;;;;;;4994055;28;20458;-68
2021/10/24 08:53:43;;;;;;;53.73;50.30;;;;;;;;;;4990761;28;20838;-69
2021/10/24 08:56:14;;;;;;;60.57;56.67;;;;;;;;;;4988727;28;20473;-68
2021/10/24 08:58:41;;;;;;;59.93;56.23;;;;;;;;;;4992627;28;21002;-69
2021/10/24 09:01:08;;;;;;;57.90;54.10;;;;;;;;;;4992814;28;20454;-68
2021/10/24 09:03:36;;;;;;;54.00;50.80;;;;;;;;;;4992404;28;20462;-70
2021/10/24 09:06:05;;;;;;;49.60;46.33;;;;;;;;;;4992711;28;20458;-69
2021/10/24 09:08:37;;;;;;;42.83;40.33;;;;;;;;;;4993270;28;20509;-68
2021/10/24 09:11:04;;;;;;;43.27;40.37;;;;;;;;;;4994922;28;20455;-69
2021/10/24 09:13:32;;;;;;;43.87;41.17;;;;;;;;;;4993309;28;20461;-68
2021/10/24 09:16:00;;;;;;;36.80;34.60;;;;;;;;;;4992240;28;20968;-69
2021/10/24 09:18:31;;;;;;;35.97;33.67;;;;;;;;;;4993130;28;20493;-68
2021/10/24 09:20:58;;;;;;;36.00;33.90;;;;;;;;;;4992563;28;20454;-68
2021/10/24 09:23:32;;;;;;;35.37;32.90;;;;;;;;;;4992875;28;20975;-66
2021/10/24 09:26:01;;;;;;;32.40;30.20;;;;;;;;;;4992262;28;20446;-70
2021/10/24 09:28:28;;;;;;;33.10;30.90;;;;;;;;;;4992264;28;20509;-66
2021/10/24 09:31:00;;;;;;;30.60;28.80;;;;;;;;;;4992215;28;20583;-64
2021/10/24 09:33:27;;;;;;;32.17;30.27;;;;;;;;;;4991972;28;20446;-63
2021/10/24 09:35:54;;;;;;;32.57;30.67;;;;;;;;;;4991402;28;20828;-64
2021/10/24 09:38:22;;;;;;;32.73;30.67;;;;;;;;;;4992520;28;20522;-65
2021/10/24 09:40:50;;;;;;;31.27;29.47;;;;;;;;;;4992699;28;20460;-64
2021/10/24 09:43:20;;;;;;;30.33;28.53;;;;;;;;;;4992587;28;20450;-65
2021/10/24 09:45:50;;;;;;;28.87;27.17;;;;;;;;;;4991539;28;20457;-65
2021/10/24 09:48:18;;;;;;;28.53;26.70;;;;;;;;;;4993521;28;20477;-65
2021/10/24 09:50:50;;;;;;;29.53;27.73;;;;;;;;;;4993185;28;20465;-66
2021/10/24 09:53:18;;;;;;;27.43;25.80;;;;;;;;;;4993205;28;20799;-67
2021/10/24 09:55:46;;;;;;;26.57;25.07;;;;;;;;;;4993265;28;20450;-67
2021/10/24 09:58:14;;;;;;;27.57;25.60;;;;;;;;;;4992884;28;20577;-67
2021/10/24 10:00:46;;;;;;;27.77;26.07;;;;;;;;;;4994391;28;20569;-69
2021/10/24 10:03:14;;;;;;;26.13;24.73;;;;;;;;;;4993190;28;20455;-67
2021/10/24 10:05:41;;;;;;;27.53;25.97;;;;;;;;;;4994782;28;20451;-67
2021/10/24 10:08:09;;;;;;;26.60;25.13;;;;;;;;;;4994509;28;20843;-69
2021/10/24 10:10:38;;;;;;;27.17;25.57;;;;;;;;;;4996963;28;20450;-64
2021/10/24 10:13:08;;;;;;;27.73;26.03;;;;;;;;;;4997822;28;20809;-65
2021/10/24 10:15:37;;;;;;;28.43;26.53;;;;;;;;;;4994954;28;20457;-64
2021/10/24 10:18:05;;;;;;;26.60;25.00;;;;;;;;;;4995839;28;20504;-65
2021/10/24 10:20:35;;;;;;;27.00;25.30;;;;;;;;;;4995099;28;20542;-65
2021/10/24 10:23:04;;;;;;;27.50;25.70;;;;;;;;;;4994160;28;20505;-65
2021/10/24 10:25:31;;;;;;;26.83;25.03;;;;;;;;;;4996648;28;20834;-64
2021/10/24 10:27:59;;;;;;;27.53;25.70;;;;;;;;;;4997000;28;20477;-65
2021/10/24 10:30:36;;;;;;;25.93;24.50;;;;;;;;;;4997015;28;20454;-65
2021/10/24 10:33:07;;;;;;;27.13;25.23;;;;;;;;;;4996291;28;20450;-64
2021/10/24 10:35:36;;;;;;;27.57;26.07;;;;;;;;;;4995473;28;20556;-63
2021/10/24 10:38:04;;;;;;;25.63;23.97;;;;;;;;;;4996017;28;20493;-65
2021/10/24 10:40:33;;;;;;;25.90;24.27;;;;;;;;;;4996610;28;20446;-65
2021/10/24 10:43:02;;;;;;;24.63;23.03;;;;;;;;;;4996041;28;20455;-65
2021/10/24 10:45:47;;;;;;;23.97;22.47;;;;;;;;;;4996781;28;20450;-67
2021/10/24 10:48:26;;;;;;;24.50;23.10;;;;;;;;;;4997627;28;20830;-67
2021/10/24 10:51:00;;;;;;;23.57;22.27;;;;;;;;;;4996693;28;20449;-67
2021/10/24 10:54:01;;;;;;;25.00;23.50;;;;;;;;;;4996059;28;20460;-66
2021/10/24 10:56:32;;;;;;;24.70;23.20;;;;;;;;;;4997520;28;20461;-67
2021/10/24 10:58:59;;;;;;;24.37;22.87;;;;;;;;;;4995504;28;21024;-67
2021/10/24 11:01:31;;;;;;;23.10;21.80;;;;;;;;;;4995890;28;20454;-67
2021/10/24 11:04:01;;;;;;;24.00;22.67;;;;;;;;;;4996327;28;20439;-66
2021/10/24 11:06:46;;;;;;;23.77;22.07;;;;;;;;;;4995122;28;20546;-67
2021/10/24 11:09:33;;;;;;;24.60;23.00;;;;;;;;;;4996017;28;20474;-67
2021/10/24 11:12:01;;;;;;;24.37;22.97;;;;;;;;;;4996190;28;20469;-65
2021/10/24 11:14:41;;;;;;;24.60;23.10;;;;;;;;;;4996512;28;20545;-66
2021/10/24 11:17:08;;;;;;;23.70;22.30;;;;;;;;;;4996103;28;20861;-65
2021/10/24 11:19:52;;;;;;;24.37;22.97;;;;;;;;;;4995963;28;20490;-65
2021/10/24 11:22:20;;;;;;;24.17;22.87;;;;;;;;;;4996299;28;20964;-66
2021/10/24 11:24:49;;;;;;;24.37;22.87;;;;;;;;;;4996058;28;20458;-66
2021/10/24 11:27:16;;;;;;;24.33;22.73;;;;;;;;;;4995915;28;20446;-67
2021/10/24 11:29:47;;;;;;;24.00;22.60;;;;;;;;;;4996773;28;20501;-66
2021/10/24 11:32:15;;;;;;;24.07;22.77;;;;;;;;;;4994810;28;20988;-67
2021/10/24 11:34:42;;;;;;;25.80;24.10;;;;;;;;;;4996552;28;20482;-65
2021/10/24 11:37:11;;;;;;;23.93;22.50;;;;;;;;;;4997010;28;20465;-67
2021/10/24 11:39:39;;;;;;;23.77;22.47;;;;;;;;;;5027010;22;20501;-68
2021/10/24 11:42:09;;;;;;;23.27;21.73;;;;;;;;;;5013803;28;20452;-69
2021/10/24 11:44:37;;;;;;;23.27;21.87;;;;;;;;;;5029095;28;20821;-68
2021/10/24 11:47:08;;;;;;;24.87;23.47;;;;;;;;;;5029382;28;20460;-68
2021/10/24 11:49:43;;;;;;;24.80;23.10;;;;;;;;;;5015223;28;20462;-69
2021/10/24 11:52:21;;;;;;;23.50;22.20;;;;;;;;;;5013955;28;20440;-68
2021/10/24 11:54:59;;;;;;;24.47;22.97;;;;;;;;;;5013587;28;20445;-68
2021/10/24 11:57:35;;;;;;;23.63;22.30;;;;;;;;;;5013835;28;20923;-69
2021/10/24 12:00:18;;;;;;;23.80;22.50;;;;;;;;;;5013951;28;20488;-68
2021/10/24 12:02:55;;;;;;;23.80;22.33;;;;;;;;;;5013540;28;20544;-69
2021/10/24 12:05:24;;;;;;;23.70;22.40;;;;;;;;;;5013535;28;20548;-69
2021/10/24 12:07:53;;;;;;;23.63;22.20;;;;;;;;;;5013287;28;20455;-69
2021/10/24 12:10:21;;;;;;;24.20;22.73;;;;;;;;;;5013870;28;20826;-69
2021/10/24 12:12:48;;;;;;;23.73;22.33;;;;;;;;;;5013728;28;20450;-68
2021/10/24 12:15:15;;;;;;;23.30;22.00;;;;;;;;;;5013402;28;20445;-69
2021/10/24 12:17:43;;;;;;;23.30;21.90;;;;;;;;;;5013358;28;20449;-69
2021/10/24 12:20:11;;;;;;;22.47;21.10;;;;;;;;;;5013334;28;20856;-69
2021/10/24 12:22:39;;;;;;;22.40;21.10;;;;;;;;;;5013361;28;20478;-69
2021/10/24 12:25:12;;;;;;;22.50;21.20;;;;;;;;;;5013518;28;20457;-68
2021/10/24 12:27:42;;;;;;;23.43;22.10;;;;;;;;;;5013475;28;20939;-69
2021/10/24 12:30:11;;;;;;;23.30;22.00;;;;;;;;;;5013450;28;20887;-69
2021/10/24 12:32:53;;;;;;;22.77;21.47;;;;;;;;;;5012901;28;20453;-68
2021/10/24 12:35:20;;;;;;;23.30;22.00;;;;;;;;;;5013076;28;20430;-68
2021/10/24 12:37:59;;;;;;;23.13;21.93;;;;;;;;;;5013550;28;20456;-68
2021/10/24 12:40:29;;;;;;;23.70;22.30;;;;;;;;;;5013536;28;20430;-69
2021/10/24 12:43:04;;;;;;;23.70;22.40;;;;;;;;;;5013007;28;20446;-68
2021/10/24 12:45:31;;;;;;;23.33;21.90;;;;;;;;;;5012902;28;20444;-68
2021/10/24 12:47:59;;;;;;;22.70;21.50;;;;;;;;;;5012236;28;20463;-68
2021/10/24 12:50:32;;;;;;;23.17;21.97;;;;;;;;;;5013230;28;20452;-68
2021/10/24 12:53:00;;;;;;;23.00;21.77;;;;;;;;;;5012890;28;20449;-68
2021/10/24 12:55:29;;;;;;;22.97;21.77;;;;;;;;;;5012817;28;20452;-68
2021/10/24 12:57:56;;;;;;;23.20;21.90;;;;;;;;;;5012744;28;20453;-68
2021/10/24 13:00:23;;;;;;;22.93;21.73;;;;;;;;;;5012377;28;20972;-68
2021/10/24 13:02:50;;;;;;;23.13;21.70;;;;;;;;;;5012883;28;20446;-68
2021/10/24 13:05:17;;;;;;;22.97;21.77;;;;;;;;;;5012319;28;20493;-68
2021/10/24 13:07:44;;;;;;;23.40;22.00;;;;;;;;;;5012556;28;20827;-68
2021/10/24 13:10:12;;;;;;;23.27;22.03;;;;;;;;;;5012901;28;20476;-68
2021/10/24 13:12:40;;;;;;;23.90;22.50;;;;;;;;;;5012976;28;20449;-68
2021/10/24 13:15:07;;;;;;;24.57;23.27;;;;;;;;;;5012177;28;20454;-68
2021/10/24 13:17:34;;;;;;;24.50;23.00;;;;;;;;;;5012680;28;20457;-68
2021/10/24 13:20:02;;;;;;;25.57;24.17;;;;;;;;;;5012374;28;20499;-68
2021/10/24 13:25:13;;;;;;;23.83;22.53;;;;;;;;;;5011408;28;20843;-68
2021/10/24 13:27:42;;;;;;;23.67;22.30;;;;;;;;;;5012547;28;20457;-68
2021/10/24 13:30:09;;;;;;;23.80;22.50;;;;;;;;;;5012422;28;20469;-68
2021/10/24 13:32:36;;;;;;;25.90;24.30;;;;;;;;;;5012377;28;20458;-68
2021/10/24 13:35:04;;;;;;;23.97;22.67;;;;;;;;;;5012465;28;20460;-68
2021/10/24 13:37:31;;;;;;;23.47;22.20;;;;;;;;;;5012180;28;20456;-68
2021/10/24 13:39:58;;;;;;;24.20;22.77;;;;;;;;;;5012136;28;20499;-68
2021/10/24 13:42:25;;;;;;;23.50;22.30;;;;;;;;;;5012164;28;20452;-68
2021/10/24 13:44:54;;;;;;;23.07;21.60;;;;;;;;;;5011856;28;20472;-68
2021/10/24 13:47:21;;;;;;;23.33;21.90;;;;;;;;;;5011979;28;20545;-67
2021/10/24 13:49:48;;;;;;;23.60;22.17;;;;;;;;;;5012068;28;20468;-67
2021/10/24 13:52:16;;;;;;;23.40;22.20;;;;;;;;;;5011946;28;20828;-67
2021/10/24 13:54:43;;;;;;;25.07;23.40;;;;;;;;;;5011125;28;20461;-69
2021/10/24 13:57:10;;;;;;;26.77;25.07;;;;;;;;;;5011804;28;20456;-69
2021/10/24 13:59:38;;;;;;;24.33;23.03;;;;;;;;;;5010878;28;20988;-68
2021/10/24 14:02:06;;;;;;;25.07;23.67;;;;;;;;;;5011678;28;20457;-67
2021/10/24 14:04:33;;;;;;;25.40;24.00;;;;;;;;;;5011393;28;20458;-69
2021/10/24 14:07:01;;;;;;;25.57;24.10;;;;;;;;;;5011690;28;20453;-70
2021/10/24 14:09:28;;;;;;;24.83;23.40;;;;;;;;;;5011502;28;20473;-69
2021/10/24 14:11:55;;;;;;;24.27;22.77;;;;;;;;;;5011856;28;20453;-69
2021/10/24 14:14:23;;;;;;;24.83;23.47;;;;;;;;;;5011627;28;20481;-69
2021/10/24 14:16:50;;;;;;;27.33;25.93;;;;;;;;;;5011522;28;20449;-69